Time,TemperatureF,DewpointF,PressureIn,WindDirection,WindDirectionDegrees,WindSpeedMPH,WindSpeedGustMPH,Humidity,HourlyPrecipIn,Conditions,Clouds,dailyrainin,SolarRadiationWatts/m^2,SoftwareType,DateUTC
2013-01-16 00:02:00,10.5,6.9,30.05,North,-999,0.0,0.0,85,0.00,,,0.00,0.00,VWS V14.01,2013-01-16 07:02:00,
2013-01-16 00:07:00,10.6,7.0,30.06,North,-999,0.0,3.0,85,0.00,,,0.00,0.00,VWS V14.01,2013-01-16 07:07:00,
2013-01-16 00:12:00,11.0,7.6,30.06,North,-999,0.0,0.0,86,0.00,,,0.00,0.00,VWS V14.01,2013-01-16 07:12:00,
2013-01-16 00:17:00,11.2,7.6,30.06,North,-999,0.0,0.0,85,0.00,,,0.00,0.00,VWS V14.01,2013-01-16 07:17:00,
2013-01-16 00:22:00,11.4,7.8,30.06,North,-999,0.0,0.0,85,0.00,,,0.00,0.00,VWS V14.01,2013-01-16 07:22:00,
2013-01-16 00:27:00,11.6,8.0,30.06,North,-999,0.0,0.0,85,0.00,,,0.00,0.00,VWS V14.01,2013-01-16 07:27:00,
2013-01-16 00:32:00,11.7,8.1,30.07,North,-999,0.0,0.0,85,0.00,,,0.00,0.00,VWS V14.01,2013-01-16 07:32:00,
2013-01-16 00:37:00,11.8,7.9,30.06,North,-999,0.0,0.0,84,0.00,,,0.00,0.00,VWS V14.01,2013-01-16 07:37:00,
2013-01-16 00:42:00,11.4,7.5,30.07,North,-999,0.0,0.0,84,0.00,,,0.00,0.00,VWS V14.01,2013-01-16 07:42:00,
2013-01-16 00:47:00,11.7,8.1,30.07,North,-999,0.0,0.0,85,0.00,,,0.00,0.00,VWS V14.01,2013-01-16 07:47:00,
2013-01-16 00:52:00,11.5,9.9,30.06,North,-999,0.0,0.0,93,0.00,,,0.00,0.00,VWS V14.01,2013-01-16 07:52:00,
2013-01-16 00:57:00,11.4,7.8,30.06,North,-999,0.0,0.0,85,0.00,,,0.00,0.00,VWS V14.01,2013-01-16 07:57:00,
2013-01-16 01:02:00,11.4,7.8,30.06,North,-999,0.0,0.0,85,0.00,,,0.00,0.00,VWS V14.01,2013-01-16 08:02:00,
2013-01-16 01:07:00,11.3,7.7,30.07,North,-999,0.0,0.0,85,0.00,,,0.00,0.00,VWS V14.01,2013-01-16 08:07:00,
2013-01-16 01:12:00,11.4,7.8,30.06,North,-999,0.0,0.0,85,0.00,,,0.00,0.00,VWS V14.01,2013-01-16 08:12:00,
2013-01-16 01:17:00,11.3,7.7,30.06,North,-999,0.0,0.0,85,0.00,,,0.00,0.00,VWS V14.01,2013-01-16 08:17:00,
2013-01-16 01:22:00,11.2,7.6,30.06,North,-999,0.0,0.0,85,0.00,,,0.00,0.00,VWS V14.01,2013-01-16 08:22:00,
2013-01-16 01:27:00,11.1,7.5,30.05,North,-999,0.0,0.0,85,0.00,,,0.00,0.00,VWS V14.01,2013-01-16 08:27:00,
2013-01-16 01:32:00,11.0,7.6,30.05,North,-999,0.0,0.0,86,0.00,,,0.00,0.00,VWS V14.01,2013-01-16 08:32:00,
2013-01-16 01:36:00,11.0,7.6,30.05,North,-999,5.0,7.0,86,0.00,,,0.00,0.00,VWS V14.01,2013-01-16 08:36:00,
2013-01-16 01:41:00,10.9,7.5,30.05,North,-999,0.0,2.0,86,0.00,,,0.00,0.00,VWS V14.01,2013-01-16 08:41:00,
2013-01-16 01:46:00,10.8,7.2,30.06,North,-999,0.0,2.0,85,0.00,,,0.00,0.00,VWS V14.01,2013-01-16 08:46:00,
2013-01-16 01:51:00,10.9,7.3,30.06,North,-999,0.0,0.0,85,0.00,,,0.00,0.00,VWS V14.01,2013-01-16 08:51:00,
2013-01-16 01:56:00,11.0,7.1,30.06,North,-999,0.0,0.0,84,0.00,,,0.00,0.00,VWS V14.01,2013-01-16 08:56:00,
2013-01-16 02:01:00,10.9,7.0,30.06,North,-999,0.0,0.0,84,0.00,,,0.00,0.00,VWS V14.01,2013-01-16 09:01:00,
2013-01-16 02:06:00,10.8,6.9,30.06,North,-999,0.0,0.0,84,0.00,,,0.00,0.00,VWS V14.01,2013-01-16 09:06:00,
2013-01-16 02:11:00,10.6,6.5,30.06,North,-999,0.0,0.0,83,0.00,,,0.00,0.00,VWS V14.01,2013-01-16 09:11:00,
2013-01-16 02:16:00,10.3,6.4,30.06,North,-999,0.0,7.0,84,0.00,,,0.00,0.00,VWS V14.01,2013-01-16 09:16:00,
2013-01-16 02:21:00,9.9,5.8,30.06,North,-999,0.0,0.0,83,0.00,,,0.00,0.00,VWS V14.01,2013-01-16 09:21:00,
2013-01-16 02:26:00,9.8,5.9,30.06,North,-999,0.0,0.0,84,0.00,,,0.00,0.00,VWS V14.01,2013-01-16 09:26:00,
2013-01-16 02:31:00,9.8,5.9,30.07,North,-999,0.0,0.0,84,0.00,,,0.00,0.00,VWS V14.01,2013-01-16 09:31:00,
2013-01-16 02:36:00,9.9,6.0,30.07,North,-999,0.0,0.0,84,0.00,,,0.00,0.00,VWS V14.01,2013-01-16 09:36:00,
2013-01-16 02:41:00,9.8,5.7,30.07,North,-999,0.0,0.0,83,0.00,,,0.00,0.00,VWS V14.01,2013-01-16 09:41:00,
2013-01-16 02:46:00,9.5,5.4,30.07,North,-999,0.0,3.0,83,0.00,,,0.00,0.00,VWS V14.01,2013-01-16 09:46:00,
2013-01-16 02:51:00,9.7,6.1,30.06,North,-999,0.0,0.0,85,0.00,,,0.00,0.00,VWS V14.01,2013-01-16 09:51:00,
2013-01-16 02:56:00,9.7,5.8,30.07,North,-999,0.0,0.0,84,0.00,,,0.00,0.00,VWS V14.01,2013-01-16 09:56:00,
2013-01-16 03:01:00,9.6,5.5,30.07,North,-999,4.0,5.0,83,0.00,,,0.00,0.00,VWS V14.01,2013-01-16 10:01:00,
2013-01-16 03:06:00,9.4,5.0,30.07,North,-999,6.0,6.0,82,0.00,,,0.00,0.00,VWS V14.01,2013-01-16 10:06:00,
2013-01-16 03:11:00,9.3,4.9,30.07,North,-999,0.0,4.0,82,0.00,,,0.00,0.00,VWS V14.01,2013-01-16 10:11:00,
2013-01-16 03:16:00,9.6,5.8,30.07,North,-999,0.0,4.0,84,0.00,,,0.00,0.00,VWS V14.01,2013-01-16 10:16:00,
2013-01-16 03:21:00,10.2,8.6,30.07,North,-999,2.0,5.0,93,0.00,,,0.00,0.00,VWS V14.01,2013-01-16 10:21:00,
2013-01-16 03:26:00,10.8,6.7,30.07,North,-999,0.0,5.0,83,0.00,,,0.00,0.00,VWS V14.01,2013-01-16 10:26:00,
2013-01-16 03:31:00,10.9,6.5,30.07,North,-999,0.0,3.0,82,0.00,,,0.00,0.00,VWS V14.01,2013-01-16 10:31:00,
2013-01-16 03:36:00,11.1,6.7,30.06,North,-999,0.0,3.0,82,0.00,,,0.00,0.00,VWS V14.01,2013-01-16 10:36:00,
2013-01-16 03:41:00,11.1,6.7,30.06,North,-999,0.0,0.0,82,0.00,,,0.00,0.00,VWS V14.01,2013-01-16 10:41:00,
2013-01-16 03:46:00,11.0,6.3,30.06,North,-999,0.0,0.0,81,0.00,,,0.00,0.00,VWS V14.01,2013-01-16 10:46:00,
2013-01-16 03:51:00,10.8,6.1,30.06,North,-999,0.0,0.0,81,0.00,,,0.00,0.00,VWS V14.01,2013-01-16 10:51:00,
2013-01-16 03:56:00,10.3,5.4,30.06,North,-999,5.0,6.0,80,0.00,,,0.00,0.00,VWS V14.01,2013-01-16 10:56:00,
2013-01-16 04:01:00,10.0,5.3,30.06,North,-999,0.0,0.0,81,0.00,,,0.00,0.00,VWS V14.01,2013-01-16 11:01:00,
2013-01-16 04:06:00,10.0,5.6,30.06,North,-999,0.0,0.0,82,0.00,,,0.00,0.00,VWS V14.01,2013-01-16 11:06:00,
2013-01-16 04:11:00,9.9,5.2,30.06,North,-999,0.0,0.0,81,0.00,,,0.00,0.00,VWS V14.01,2013-01-16 11:11:00,
2013-01-16 04:16:00,9.8,5.4,30.06,North,-999,0.0,0.0,82,0.00,,,0.00,0.00,VWS V14.01,2013-01-16 11:16:00,
2013-01-16 04:21:00,9.9,5.5,30.05,North,-999,0.0,0.0,82,0.00,,,0.00,0.00,VWS V14.01,2013-01-16 11:21:00,
2013-01-16 04:26:00,9.8,5.4,30.05,North,-999,1.0,2.0,82,0.00,,,0.00,0.00,VWS V14.01,2013-01-16 11:26:00,
2013-01-16 04:31:00,9.7,5.3,30.07,North,-999,4.0,9.0,82,0.00,,,0.00,0.00,VWS V14.01,2013-01-16 11:31:00,
2013-01-16 04:36:00,9.5,4.9,30.06,North,-999,0.0,9.0,81,0.00,,,0.00,0.00,VWS V14.01,2013-01-16 11:36:00,
2013-01-16 04:41:00,9.3,4.7,30.06,North,-999,0.0,0.0,81,0.00,,,0.00,0.00,VWS V14.01,2013-01-16 11:41:00,
2013-01-16 04:46:00,9.2,4.8,30.06,North,-999,0.0,0.0,82,0.00,,,0.00,0.00,VWS V14.01,2013-01-16 11:46:00,
2013-01-16 04:51:00,9.2,4.8,30.05,North,-999,0.0,0.0,82,0.00,,,0.00,0.00,VWS V14.01,2013-01-16 11:51:00,
2013-01-16 04:56:00,9.3,5.2,30.06,North,-999,0.0,6.0,83,0.00,,,0.00,0.00,VWS V14.01,2013-01-16 11:56:00,
2013-01-16 05:01:00,9.6,5.2,30.06,North,-999,0.0,1.0,82,0.00,,,0.00,0.00,VWS V14.01,2013-01-16 12:01:00,
2013-01-16 05:06:00,9.4,4.8,30.07,North,-999,0.0,1.0,81,0.00,,,0.00,0.00,VWS V14.01,2013-01-16 12:06:00,
2013-01-16 05:11:00,9.4,5.0,30.07,North,-999,1.0,5.0,82,0.00,,,0.00,0.00,VWS V14.01,2013-01-16 12:11:00,
2013-01-16 05:16:00,9.6,5.2,30.07,North,-999,0.0,5.0,82,0.00,,,0.00,0.00,VWS V14.01,2013-01-16 12:16:00,
2013-01-16 05:21:00,10.1,6.0,30.07,North,-999,0.0,0.0,83,0.00,,,0.00,0.00,VWS V14.01,2013-01-16 12:21:00,
2013-01-16 05:26:00,10.3,5.9,30.07,North,-999,0.0,0.0,82,0.00,,,0.00,0.00,VWS V14.01,2013-01-16 12:26:00,
2013-01-16 05:31:00,10.2,5.8,30.07,North,-999,0.0,0.0,82,0.00,,,0.00,0.00,VWS V14.01,2013-01-16 12:31:00,
2013-01-16 05:36:00,10.3,5.9,30.08,North,-999,0.0,0.0,82,0.00,,,0.00,0.00,VWS V14.01,2013-01-16 12:36:00,
2013-01-16 05:41:00,10.6,6.2,30.08,North,-999,1.0,5.0,82,0.00,,,0.00,0.00,VWS V14.01,2013-01-16 12:41:00,
2013-01-16 05:46:00,10.5,6.1,30.08,North,-999,0.0,5.0,82,0.00,,,0.00,0.00,VWS V14.01,2013-01-16 12:46:00,
2013-01-16 05:51:00,10.7,6.6,30.08,North,-999,0.0,0.0,83,0.00,,,0.00,0.00,VWS V14.01,2013-01-16 12:51:00,
2013-01-16 05:56:00,11.0,6.9,30.08,North,-999,0.0,0.0,83,0.00,,,0.00,0.00,VWS V14.01,2013-01-16 12:56:00,
2013-01-16 06:01:00,10.5,5.6,30.09,North,-999,0.0,0.0,80,0.00,,,0.00,0.00,VWS V14.01,2013-01-16 13:01:00,
2013-01-16 06:06:00,9.9,5.0,30.08,North,-999,0.0,0.0,80,0.00,,,0.00,0.00,VWS V14.01,2013-01-16 13:06:00,
2013-01-16 06:11:00,8.8,4.2,30.09,North,-999,0.0,0.0,81,0.00,,,0.00,0.00,VWS V14.01,2013-01-16 13:11:00,
2013-01-16 06:16:00,8.3,3.7,30.09,North,-999,0.0,0.0,81,0.00,,,0.00,0.00,VWS V14.01,2013-01-16 13:16:00,
2013-01-16 06:21:00,7.9,3.6,30.09,North,-999,0.0,0.0,82,0.00,,,0.00,0.00,VWS V14.01,2013-01-16 13:21:00,
2013-01-16 06:26:00,8.0,3.9,30.09,North,-999,0.0,0.0,83,0.00,,,0.00,0.00,VWS V14.01,2013-01-16 13:26:00,
2013-01-16 06:31:00,8.1,4.3,30.10,North,-999,0.0,0.0,84,0.00,,,0.00,0.00,VWS V14.01,2013-01-16 13:31:00,
2013-01-16 06:36:00,8.4,4.3,30.09,North,-999,0.0,0.0,83,0.00,,,0.00,0.00,VWS V14.01,2013-01-16 13:36:00,
2013-01-16 06:41:00,8.6,4.8,30.09,North,-999,0.0,0.0,84,0.00,,,0.00,0.00,VWS V14.01,2013-01-16 13:41:00,
2013-01-16 06:46:00,8.8,5.0,30.08,North,-999,0.0,6.0,84,0.00,,,0.00,0.00,VWS V14.01,2013-01-16 13:46:00,
2013-01-16 06:51:00,8.9,5.1,30.09,North,-999,0.0,0.0,84,0.00,,,0.00,0.00,VWS V14.01,2013-01-16 13:51:00,
2013-01-16 06:56:00,8.7,4.6,30.09,North,-999,0.0,0.0,83,0.00,,,0.00,0.00,VWS V14.01,2013-01-16 13:56:00,
2013-01-16 07:01:00,8.4,4.3,30.09,North,-999,0.0,0.0,83,0.00,,,0.00,0.00,VWS V14.01,2013-01-16 14:01:00,
2013-01-16 07:06:00,8.5,4.7,30.09,North,-999,0.0,0.0,84,0.00,,,0.00,0.00,VWS V14.01,2013-01-16 14:06:00,
2013-01-16 07:11:00,8.7,5.1,30.10,North,-999,0.0,0.0,85,0.00,,,0.00,0.00,VWS V14.01,2013-01-16 14:11:00,
2013-01-16 07:16:00,9.1,5.8,30.10,North,-999,0.0,0.0,86,0.00,,,0.00,0.00,VWS V14.01,2013-01-16 14:16:00,
2013-01-16 07:21:00,9.5,6.2,30.10,North,-999,0.0,0.0,86,0.00,,,0.00,0.00,VWS V14.01,2013-01-16 14:21:00,
2013-01-16 07:26:00,9.1,5.0,30.10,North,-999,0.0,0.0,83,0.00,,,0.00,0.00,VWS V14.01,2013-01-16 14:26:00,
2013-01-16 07:31:00,9.1,5.5,30.10,North,-999,0.0,0.0,85,0.00,,,0.00,0.00,VWS V14.01,2013-01-16 14:31:00,
2013-01-16 07:36:00,9.7,6.1,30.10,North,-999,0.0,3.0,85,0.00,,,0.00,0.00,VWS V14.01,2013-01-16 14:36:00,
2013-01-16 07:41:00,10.1,6.5,30.10,North,-999,0.0,6.0,85,0.00,,,0.00,7.00,VWS V14.01,2013-01-16 14:41:00,
2013-01-16 07:46:00,10.0,8.4,30.11,North,-999,0.0,7.0,93,0.00,,,0.00,7.00,VWS V14.01,2013-01-16 14:46:00,
2013-01-16 07:51:00,9.7,5.6,30.11,North,-999,5.0,6.0,83,0.00,,,0.00,7.00,VWS V14.01,2013-01-16 14:51:00,
2013-01-16 07:56:00,8.8,4.4,30.11,North,-999,2.0,6.0,82,0.00,,,0.00,11.00,VWS V14.01,2013-01-16 14:56:00,
2013-01-16 08:01:00,8.2,4.1,30.11,North,-999,0.0,0.0,83,0.00,,,0.00,16.00,VWS V14.01,2013-01-16 15:01:00,
2013-01-16 08:06:00,7.5,2.9,30.11,North,-999,0.0,0.0,81,0.00,,,0.00,21.00,VWS V14.01,2013-01-16 15:06:00,
2013-01-16 08:11:00,6.7,2.4,30.11,North,-999,5.0,5.0,82,0.00,,,0.00,30.00,VWS V14.01,2013-01-16 15:11:00,
2013-01-16 08:16:00,6.1,1.8,30.12,North,-999,0.0,5.0,82,0.00,,,0.00,47.00,VWS V14.01,2013-01-16 15:16:00,
2013-01-16 08:21:00,6.5,2.7,30.12,North,-999,0.0,0.0,84,0.00,,,0.00,60.00,VWS V14.01,2013-01-16 15:21:00,
2013-01-16 08:26:00,7.2,3.7,30.11,North,-999,0.0,0.0,85,0.00,,,0.00,70.00,VWS V14.01,2013-01-16 15:26:00,
2013-01-16 08:30:00,7.8,4.2,30.11,North,-999,0.0,0.0,85,0.00,,,0.00,81.00,VWS V14.01,2013-01-16 15:30:00,
2013-01-16 08:35:00,8.2,4.4,30.12,North,-999,0.0,0.0,84,0.00,,,0.00,91.00,VWS V14.01,2013-01-16 15:35:00,
2013-01-16 08:40:00,8.5,4.4,30.13,North,-999,8.0,10.0,83,0.00,,,0.00,109.00,VWS V14.01,2013-01-16 15:40:00,
2013-01-16 08:45:00,9.0,5.2,30.12,North,-999,2.0,11.0,84,0.00,,,0.00,120.00,VWS V14.01,2013-01-16 15:45:00,
2013-01-16 08:50:00,9.6,5.8,30.13,North,-999,3.0,3.0,84,0.00,,,0.00,98.00,VWS V14.01,2013-01-16 15:50:00,
2013-01-16 08:55:00,9.8,5.7,30.12,North,-999,2.0,11.0,83,0.00,,,0.00,128.00,VWS V14.01,2013-01-16 15:55:00,
2013-01-16 09:00:00,10.2,6.1,30.14,North,-999,5.0,10.0,83,0.00,,,0.00,156.00,VWS V14.01,2013-01-16 16:00:00,
2013-01-16 09:05:00,10.5,6.4,30.13,North,-999,4.0,11.0,83,0.00,,,0.00,174.00,VWS V14.01,2013-01-16 16:05:00,
2013-01-16 09:10:00,10.9,6.8,30.13,North,-999,0.0,0.0,83,0.00,,,0.00,193.00,VWS V14.01,2013-01-16 16:10:00,
2013-01-16 09:15:00,11.3,6.9,30.12,North,-999,0.0,10.0,82,0.00,,,0.00,213.00,VWS V14.01,2013-01-16 16:15:00,
2013-01-16 09:20:00,11.9,7.7,30.12,North,-999,0.0,0.0,83,0.00,,,0.00,220.00,VWS V14.01,2013-01-16 16:20:00,
2013-01-16 09:25:00,12.7,8.5,30.14,North,-999,7.0,7.0,83,0.00,,,0.00,220.00,VWS V14.01,2013-01-16 16:25:00,
2013-01-16 09:30:00,13.0,8.6,30.13,North,-999,0.0,0.0,82,0.00,,,0.00,193.00,VWS V14.01,2013-01-16 16:30:00,
2013-01-16 09:35:00,13.4,8.9,30.14,North,-999,5.0,7.0,82,0.00,,,0.00,144.00,VWS V14.01,2013-01-16 16:35:00,
2013-01-16 09:40:00,13.5,8.8,30.13,North,-999,2.0,5.0,81,0.00,,,0.00,135.00,VWS V14.01,2013-01-16 16:40:00,
2013-01-16 09:45:00,13.5,8.8,30.14,North,-999,0.0,6.0,81,0.00,,,0.00,153.00,VWS V14.01,2013-01-16 16:45:00,
2013-01-16 09:50:00,13.4,8.4,30.15,North,-999,2.0,9.0,80,0.00,,,0.00,239.00,VWS V14.01,2013-01-16 16:50:00,
2013-01-16 09:55:00,13.4,8.4,30.14,North,-999,0.0,9.0,80,0.00,,,0.00,248.00,VWS V14.01,2013-01-16 16:55:00,
2013-01-16 10:00:00,13.5,8.5,30.15,North,-999,0.0,5.0,80,0.00,,,0.00,272.00,VWS V14.01,2013-01-16 17:00:00,
2013-01-16 10:05:00,13.7,8.7,30.15,North,-999,2.0,5.0,80,0.00,,,0.00,304.00,VWS V14.01,2013-01-16 17:05:00,
2013-01-16 10:10:00,14.1,9.1,30.15,North,-999,4.0,7.0,80,0.00,,,0.00,332.00,VWS V14.01,2013-01-16 17:10:00,
2013-01-16 10:15:00,14.3,9.3,30.15,North,-999,4.0,7.0,80,0.00,,,0.00,341.00,VWS V14.01,2013-01-16 17:15:00,
2013-01-16 10:20:00,14.6,9.3,30.15,North,-999,1.0,5.0,79,0.00,,,0.00,338.00,VWS V14.01,2013-01-16 17:20:00,
2013-01-16 10:25:00,15.0,9.7,30.15,North,-999,6.0,10.0,79,0.00,,,0.00,306.00,VWS V14.01,2013-01-16 17:25:00,
2013-01-16 10:30:00,15.2,9.6,30.15,North,-999,1.0,2.0,78,0.00,,,0.00,243.00,VWS V14.01,2013-01-16 17:30:00,
2013-01-16 10:35:00,15.5,9.9,30.15,North,-999,2.0,5.0,78,0.00,,,0.00,244.00,VWS V14.01,2013-01-16 17:35:00,
2013-01-16 10:40:00,15.8,10.2,30.16,North,-999,1.0,6.0,78,0.00,,,0.00,258.00,VWS V14.01,2013-01-16 17:40:00,
2013-01-16 10:45:00,16.1,10.5,30.15,North,-999,0.0,6.0,78,0.00,,,0.00,308.00,VWS V14.01,2013-01-16 17:45:00,
2013-01-16 10:50:00,16.6,10.7,30.15,North,-999,0.0,0.0,77,0.00,,,0.00,316.00,VWS V14.01,2013-01-16 17:50:00,
2013-01-16 10:55:00,16.9,10.9,30.15,North,-999,0.0,3.0,77,0.00,,,0.00,388.00,VWS V14.01,2013-01-16 17:55:00,
2013-01-16 11:00:00,17.2,10.9,30.15,North,-999,2.0,3.0,76,0.00,,,0.00,413.00,VWS V14.01,2013-01-16 18:00:00,
2013-01-16 11:05:00,17.3,11.1,30.15,North,-999,0.0,4.0,76,0.00,,,0.00,429.00,VWS V14.01,2013-01-16 18:05:00,
2013-01-16 11:10:00,17.3,11.1,30.15,North,-999,0.0,3.0,76,0.00,,,0.00,376.00,VWS V14.01,2013-01-16 18:10:00,
2013-01-16 11:15:00,17.6,11.6,30.15,North,-999,0.0,4.0,77,0.00,,,0.00,376.00,VWS V14.01,2013-01-16 18:15:00,
2013-01-16 11:20:00,17.9,11.6,30.15,North,-999,3.0,4.0,76,0.00,,,0.00,427.00,VWS V14.01,2013-01-16 18:20:00,
2013-01-16 11:25:00,18.0,11.7,30.15,North,-999,0.0,4.0,76,0.00,,,0.00,441.00,VWS V14.01,2013-01-16 18:25:00,
2013-01-16 11:30:00,18.4,11.8,30.14,North,-999,3.0,3.0,75,0.00,,,0.00,454.00,VWS V14.01,2013-01-16 18:30:00,
2013-01-16 11:35:00,18.4,11.5,30.14,North,-999,1.0,5.0,74,0.00,,,0.00,424.00,VWS V14.01,2013-01-16 18:35:00,
2013-01-16 11:40:00,18.4,11.5,30.13,North,-999,1.0,3.0,74,0.00,,,0.00,476.00,VWS V14.01,2013-01-16 18:40:00,
2013-01-16 11:45:00,18.8,12.5,30.13,North,-999,0.0,3.0,76,0.00,,,0.00,494.00,VWS V14.01,2013-01-16 18:45:00,
2013-01-16 11:50:00,18.6,11.7,30.14,North,-999,2.0,5.0,74,0.00,,,0.00,452.00,VWS V14.01,2013-01-16 18:50:00,
2013-01-16 11:55:00,18.8,12.2,30.14,North,-999,0.0,5.0,75,0.00,,,0.00,520.00,VWS V14.01,2013-01-16 18:55:00,
2013-01-16 12:00:00,19.2,12.9,30.14,North,-999,3.0,4.0,76,0.00,,,0.00,396.00,VWS V14.01,2013-01-16 19:00:00,
2013-01-16 12:05:00,19.2,12.9,30.13,North,-999,3.0,5.0,76,0.00,,,0.00,457.00,VWS V14.01,2013-01-16 19:05:00,
2013-01-16 12:10:00,19.2,12.6,30.13,North,-999,0.0,3.0,75,0.00,,,0.00,471.00,VWS V14.01,2013-01-16 19:10:00,
2013-01-16 12:15:00,19.7,13.4,30.13,North,-999,0.0,3.0,76,0.00,,,0.00,506.00,VWS V14.01,2013-01-16 19:15:00,
2013-01-16 12:20:00,20.4,13.8,30.13,North,-999,0.0,2.0,75,0.00,,,0.00,489.00,VWS V14.01,2013-01-16 19:20:00,
2013-01-16 12:25:00,20.6,13.3,30.13,North,-999,3.0,4.0,73,0.00,,,0.00,513.00,VWS V14.01,2013-01-16 19:25:00,
2013-01-16 12:30:00,20.4,13.1,30.13,North,-999,2.0,3.0,73,0.00,,,0.00,497.00,VWS V14.01,2013-01-16 19:30:00,
2013-01-16 12:35:00,20.4,13.1,30.13,North,-999,3.0,6.0,73,0.00,,,0.00,457.00,VWS V14.01,2013-01-16 19:35:00,
2013-01-16 12:40:00,20.4,13.4,30.13,North,-999,1.0,3.0,74,0.00,,,0.00,455.00,VWS V14.01,2013-01-16 19:40:00,
2013-01-16 12:45:00,20.4,13.4,30.13,North,-999,2.0,5.0,74,0.00,,,0.00,422.00,VWS V14.01,2013-01-16 19:45:00,
2013-01-16 12:50:00,20.3,13.4,30.13,North,-999,0.0,2.0,74,0.00,,,0.00,378.00,VWS V14.01,2013-01-16 19:50:00,
2013-01-16 12:55:00,20.2,13.2,30.12,North,-999,0.0,3.0,74,0.00,,,0.00,399.00,VWS V14.01,2013-01-16 19:55:00,
2013-01-16 13:00:00,20.2,13.2,30.12,North,-999,2.0,2.0,74,0.00,,,0.00,329.00,VWS V14.01,2013-01-16 20:00:00,
2013-01-16 13:05:00,20.1,13.5,30.12,North,-999,0.0,5.0,75,0.00,,,0.00,320.00,VWS V14.01,2013-01-16 20:05:00,
2013-01-16 13:10:00,20.3,13.4,30.12,North,-999,0.0,2.0,74,0.00,,,0.00,338.00,VWS V14.01,2013-01-16 20:10:00,
2013-01-16 13:15:00,20.5,13.5,30.12,North,-999,0.0,2.0,74,0.00,,,0.00,345.00,VWS V14.01,2013-01-16 20:15:00,
2013-01-16 13:20:00,20.5,13.2,30.12,North,-999,2.0,3.0,73,0.00,,,0.00,334.00,VWS V14.01,2013-01-16 20:20:00,
2013-01-16 13:25:00,20.4,13.4,30.12,North,-999,3.0,3.0,74,0.00,,,0.00,350.00,VWS V14.01,2013-01-16 20:25:00,
2013-01-16 13:30:00,20.3,13.4,30.12,North,-999,0.0,3.0,74,0.00,,,0.00,334.00,VWS V14.01,2013-01-16 20:30:00,
2013-01-16 13:35:00,20.4,13.4,30.12,North,-999,0.0,3.0,74,0.00,,,0.00,396.00,VWS V14.01,2013-01-16 20:35:00,
2013-01-16 13:40:00,20.6,13.6,30.11,North,-999,5.0,5.0,74,0.00,,,0.00,446.00,VWS V14.01,2013-01-16 20:40:00,
2013-01-16 13:45:00,20.6,13.6,30.11,North,-999,2.0,5.0,74,0.00,,,0.00,434.00,VWS V14.01,2013-01-16 20:45:00,
2013-01-16 13:50:00,20.7,13.7,30.12,North,-999,3.0,4.0,74,0.00,,,0.00,471.00,VWS V14.01,2013-01-16 20:50:00,
2013-01-16 13:55:00,20.7,13.7,30.11,North,-999,2.0,5.0,74,0.00,,,0.00,489.00,VWS V14.01,2013-01-16 20:55:00,
2013-01-16 14:00:00,20.7,13.7,30.12,North,-999,4.0,4.0,74,0.00,,,0.00,454.00,VWS V14.01,2013-01-16 21:00:00,
2013-01-16 14:05:00,20.7,13.7,30.11,North,-999,1.0,5.0,74,0.00,,,0.00,475.00,VWS V14.01,2013-01-16 21:05:00,
2013-01-16 14:10:00,20.9,13.9,30.11,North,-999,0.0,0.0,74,0.00,,,0.00,436.00,VWS V14.01,2013-01-16 21:10:00,
2013-01-16 14:15:00,21.2,13.9,30.12,North,-999,3.0,4.0,73,0.00,,,0.00,431.00,VWS V14.01,2013-01-16 21:15:00,
2013-01-16 14:20:00,21.2,13.9,30.12,North,-999,2.0,4.0,73,0.00,,,0.00,411.00,VWS V14.01,2013-01-16 21:20:00,
2013-01-16 14:25:00,21.5,14.5,30.12,North,-999,3.0,4.0,74,0.00,,,0.00,424.00,VWS V14.01,2013-01-16 21:25:00,
2013-01-16 14:30:00,21.8,14.5,30.12,North,-999,2.0,2.0,73,0.00,,,0.00,396.00,VWS V14.01,2013-01-16 21:30:00,
2013-01-16 14:35:00,21.8,14.2,30.12,North,-999,1.0,5.0,72,0.00,,,0.00,350.00,VWS V14.01,2013-01-16 21:35:00,
2013-01-16 14:40:00,21.7,14.1,30.12,North,-999,4.0,5.0,72,0.00,,,0.00,411.00,VWS V14.01,2013-01-16 21:40:00,
2013-01-16 14:45:00,21.7,14.4,30.12,North,-999,1.0,5.0,73,0.00,,,0.00,330.00,VWS V14.01,2013-01-16 21:45:00,
2013-01-16 14:50:00,21.9,14.3,30.12,North,-999,2.0,4.0,72,0.00,,,0.00,350.00,VWS V14.01,2013-01-16 21:50:00,
2013-01-16 14:55:00,22.0,14.4,30.13,North,-999,3.0,4.0,72,0.00,,,0.00,359.00,VWS V14.01,2013-01-16 21:55:00,
2013-01-16 15:00:00,22.0,14.4,30.12,North,-999,3.0,5.0,72,0.00,,,0.00,341.00,VWS V14.01,2013-01-16 22:00:00,
2013-01-16 15:05:00,22.2,14.9,30.13,North,-999,3.0,5.0,73,0.00,,,0.00,336.00,VWS V14.01,2013-01-16 22:05:00,
2013-01-16 15:10:00,22.2,14.6,30.12,North,-999,5.0,5.0,72,0.00,,,0.00,332.00,VWS V14.01,2013-01-16 22:10:00,
2013-01-16 15:15:00,22.3,14.7,30.13,North,-999,0.0,5.0,72,0.00,,,0.00,313.00,VWS V14.01,2013-01-16 22:15:00,
2013-01-16 15:20:00,22.6,14.9,30.13,North,-999,0.0,0.0,72,0.00,,,0.00,301.00,VWS V14.01,2013-01-16 22:20:00,
2013-01-16 15:25:00,22.7,15.1,30.13,North,-999,2.0,4.0,72,0.00,,,0.00,283.00,VWS V14.01,2013-01-16 22:25:00,
2013-01-16 15:30:00,22.9,14.9,30.13,North,-999,0.0,2.0,71,0.00,,,0.00,269.00,VWS V14.01,2013-01-16 22:30:00,
2013-01-16 15:35:00,22.9,14.9,30.13,North,-999,2.0,6.0,71,0.00,,,0.00,253.00,VWS V14.01,2013-01-16 22:35:00,
2013-01-16 15:40:00,22.9,14.9,30.13,North,-999,3.0,5.0,71,0.00,,,0.00,232.00,VWS V14.01,2013-01-16 22:40:00,
2013-01-16 15:45:00,23.0,15.0,30.13,North,-999,3.0,5.0,71,0.00,,,0.00,218.00,VWS V14.01,2013-01-16 22:45:00,
2013-01-16 15:50:00,22.9,14.9,30.13,North,-999,0.0,2.0,71,0.00,,,0.00,199.00,VWS V14.01,2013-01-16 22:50:00,
2013-01-16 15:55:00,23.1,15.1,30.13,North,-999,0.0,4.0,71,0.00,,,0.00,181.00,VWS V14.01,2013-01-16 22:55:00,
2013-01-16 16:00:00,23.2,15.2,30.13,North,-999,0.0,3.0,71,0.00,,,0.00,165.00,VWS V14.01,2013-01-16 23:00:00,
2013-01-16 16:05:00,23.2,15.2,30.13,North,-999,0.0,3.0,71,0.00,,,0.00,144.00,VWS V14.01,2013-01-16 23:05:00,
2013-01-16 16:10:00,23.4,15.4,30.14,North,-999,2.0,2.0,71,0.00,,,0.00,125.00,VWS V14.01,2013-01-16 23:10:00,
2013-01-16 16:15:00,23.4,15.4,30.14,North,-999,4.0,5.0,71,0.00,,,0.00,109.00,VWS V14.01,2013-01-16 23:15:00,
2013-01-16 16:19:00,23.4,15.4,30.14,North,-999,3.0,3.0,71,0.00,,,0.00,86.00,VWS V14.01,2013-01-16 23:19:00,
2013-01-16 16:24:00,23.3,15.3,30.14,North,-999,2.0,3.0,71,0.00,,,0.00,69.00,VWS V14.01,2013-01-16 23:24:00,
2013-01-16 16:29:00,23.2,15.2,30.14,North,-999,0.0,0.0,71,0.00,,,0.00,54.00,VWS V14.01,2013-01-16 23:29:00,
2013-01-16 16:34:00,23.0,15.0,30.14,North,-999,0.0,3.0,71,0.00,,,0.00,42.00,VWS V14.01,2013-01-16 23:34:00,
2013-01-16 16:39:00,22.9,15.2,30.14,North,-999,0.0,0.0,72,0.00,,,0.00,37.00,VWS V14.01,2013-01-16 23:39:00,
2013-01-16 16:44:00,23.0,15.3,30.14,North,-999,0.0,0.0,72,0.00,,,0.00,30.00,VWS V14.01,2013-01-16 23:44:00,
2013-01-16 16:49:00,23.0,15.3,30.15,North,-999,0.0,0.0,72,0.00,,,0.00,19.00,VWS V14.01,2013-01-16 23:49:00,
2013-01-16 16:54:00,22.9,15.2,30.14,North,-999,0.0,0.0,72,0.00,,,0.00,14.00,VWS V14.01,2013-01-16 23:54:00,
2013-01-16 16:59:00,22.6,15.3,30.15,North,-999,0.0,0.0,73,0.00,,,0.00,11.00,VWS V14.01,2013-01-16 23:59:00,
2013-01-16 17:04:00,22.4,15.1,30.15,North,-999,0.0,0.0,73,0.00,,,0.00,11.00,VWS V14.01,2013-01-17 00:04:00,
2013-01-16 17:09:00,22.2,15.2,30.15,North,-999,0.0,0.0,74,0.00,,,0.00,11.00,VWS V14.01,2013-01-17 00:09:00,
2013-01-16 17:14:00,22.2,15.2,30.15,North,-999,0.0,0.0,74,0.00,,,0.00,7.00,VWS V14.01,2013-01-17 00:14:00,
2013-01-16 17:19:00,22.1,15.1,30.15,North,-999,0.0,0.0,74,0.00,,,0.00,0.00,VWS V14.01,2013-01-17 00:19:00,
2013-01-16 17:24:00,22.0,15.0,30.15,North,-999,0.0,0.0,74,0.00,,,0.00,0.00,VWS V14.01,2013-01-17 00:24:00,
2013-01-16 17:29:00,21.8,14.8,30.15,North,-999,0.0,0.0,74,0.00,,,0.00,0.00,VWS V14.01,2013-01-17 00:29:00,
2013-01-16 17:34:00,21.6,14.9,30.15,North,-999,0.0,0.0,75,0.00,,,0.00,0.00,VWS V14.01,2013-01-17 00:34:00,
2013-01-16 17:39:00,21.5,14.8,30.15,North,-999,0.0,0.0,75,0.00,,,0.00,0.00,VWS V14.01,2013-01-17 00:39:00,
2013-01-16 17:44:00,21.3,14.6,30.16,North,-999,0.0,0.0,75,0.00,,,0.00,0.00,VWS V14.01,2013-01-17 00:44:00,
2013-01-16 17:49:00,21.1,14.7,30.16,North,-999,0.0,0.0,76,0.00,,,0.00,0.00,VWS V14.01,2013-01-17 00:49:00,
2013-01-16 17:54:00,20.6,14.2,30.16,North,-999,0.0,0.0,76,0.00,,,0.00,0.00,VWS V14.01,2013-01-17 00:54:00,
2013-01-16 17:59:00,20.0,13.7,30.16,North,-999,0.0,0.0,76,0.00,,,0.00,0.00,VWS V14.01,2013-01-17 00:59:00,
2013-01-16 18:04:00,19.3,13.0,30.16,North,-999,0.0,0.0,76,0.00,,,0.00,0.00,VWS V14.01,2013-01-17 01:04:00,
2013-01-16 18:09:00,18.6,12.9,30.16,North,-999,0.0,0.0,78,0.00,,,0.00,0.00,VWS V14.01,2013-01-17 01:09:00,
2013-01-16 18:14:00,18.8,13.4,30.16,North,-999,0.0,0.0,79,0.00,,,0.00,0.00,VWS V14.01,2013-01-17 01:14:00,
2013-01-16 18:19:00,18.7,12.7,30.17,North,-999,0.0,0.0,77,0.00,,,0.00,0.00,VWS V14.01,2013-01-17 01:19:00,
2013-01-16 18:24:00,18.4,12.7,30.16,North,-999,0.0,0.0,78,0.00,,,0.00,0.00,VWS V14.01,2013-01-17 01:24:00,
2013-01-16 18:29:00,18.6,13.2,30.17,North,-999,0.0,0.0,79,0.00,,,0.00,0.00,VWS V14.01,2013-01-17 01:29:00,
2013-01-16 18:34:00,18.2,11.9,30.17,North,-999,0.0,0.0,76,0.00,,,0.00,0.00,VWS V14.01,2013-01-17 01:34:00,
2013-01-16 18:39:00,17.6,11.6,30.17,North,-999,0.0,0.0,77,0.00,,,0.00,0.00,VWS V14.01,2013-01-17 01:39:00,
2013-01-16 18:44:00,17.1,11.4,30.17,North,-999,0.0,0.0,78,0.00,,,0.00,0.00,VWS V14.01,2013-01-17 01:44:00,
2013-01-16 18:49:00,17.0,11.9,30.17,North,-999,0.0,0.0,80,0.00,,,0.00,0.00,VWS V14.01,2013-01-17 01:49:00,
2013-01-16 18:54:00,16.5,11.4,30.17,North,-999,0.0,0.0,80,0.00,,,0.00,0.00,VWS V14.01,2013-01-17 01:54:00,
2013-01-16 18:59:00,16.8,12.0,30.17,North,-999,0.0,0.0,81,0.00,,,0.00,0.00,VWS V14.01,2013-01-17 01:59:00,
2013-01-16 19:04:00,16.2,10.8,30.17,North,-999,0.0,0.0,79,0.00,,,0.00,0.00,VWS V14.01,2013-01-17 02:04:00,
2013-01-16 19:09:00,15.5,10.2,30.17,North,-999,0.0,0.0,79,0.00,,,0.00,0.00,VWS V14.01,2013-01-17 02:09:00,
2013-01-16 19:14:00,14.7,9.7,30.17,North,-999,0.0,0.0,80,0.00,,,0.00,0.00,VWS V14.01,2013-01-17 02:14:00,
2013-01-16 19:19:00,13.5,8.2,30.18,North,-999,0.0,3.0,79,0.00,,,0.00,0.00,VWS V14.01,2013-01-17 02:19:00,
2013-01-16 19:24:00,13.5,9.3,30.17,North,-999,0.0,3.0,83,0.00,,,0.00,0.00,VWS V14.01,2013-01-17 02:24:00,
2013-01-16 19:29:00,14.0,9.8,30.17,North,-999,0.0,0.0,83,0.00,,,0.00,0.00,VWS V14.01,2013-01-17 02:29:00,
2013-01-16 19:34:00,14.5,10.6,30.17,North,-999,0.0,0.0,84,0.00,,,0.00,0.00,VWS V14.01,2013-01-17 02:34:00,
2013-01-16 19:39:00,14.7,10.2,30.17,North,-999,0.0,0.0,82,0.00,,,0.00,0.00,VWS V14.01,2013-01-17 02:39:00,
2013-01-16 19:44:00,14.9,10.7,30.18,North,-999,0.0,0.0,83,0.00,,,0.00,0.00,VWS V14.01,2013-01-17 02:44:00,
2013-01-16 19:49:00,14.8,10.3,30.18,North,-999,0.0,0.0,82,0.00,,,0.00,0.00,VWS V14.01,2013-01-17 02:49:00,
2013-01-16 19:54:00,14.4,9.4,30.18,North,-999,0.0,0.0,80,0.00,,,0.00,0.00,VWS V14.01,2013-01-17 02:54:00,
2013-01-16 19:59:00,14.2,9.4,30.18,North,-999,0.0,0.0,81,0.00,,,0.00,0.00,VWS V14.01,2013-01-17 02:59:00,
2013-01-16 20:04:00,14.0,9.5,30.18,North,-999,0.0,0.0,82,0.00,,,0.00,0.00,VWS V14.01,2013-01-17 03:04:00,
2013-01-16 20:09:00,14.2,10.0,30.18,North,-999,0.0,0.0,83,0.00,,,0.00,0.00,VWS V14.01,2013-01-17 03:09:00,
2013-01-16 20:14:00,14.1,10.2,30.18,North,-999,0.0,0.0,84,0.00,,,0.00,0.00,VWS V14.01,2013-01-17 03:14:00,
2013-01-16 20:19:00,14.4,10.5,30.18,North,-999,0.0,0.0,84,0.00,,,0.00,0.00,VWS V14.01,2013-01-17 03:19:00,
2013-01-16 20:24:00,13.6,8.6,30.18,North,-999,0.0,0.0,80,0.00,,,0.00,0.00,VWS V14.01,2013-01-17 03:24:00,
2013-01-16 20:29:00,13.2,8.8,30.18,North,-999,0.0,0.0,82,0.00,,,0.00,0.00,VWS V14.01,2013-01-17 03:29:00,
2013-01-16 20:34:00,13.2,9.0,30.18,North,-999,0.0,0.0,83,0.00,,,0.00,0.00,VWS V14.01,2013-01-17 03:34:00,
2013-01-16 20:39:00,13.4,9.5,30.19,North,-999,0.0,0.0,84,0.00,,,0.00,0.00,VWS V14.01,2013-01-17 03:39:00,
2013-01-16 20:44:00,13.0,9.1,30.19,North,-999,0.0,0.0,84,0.00,,,0.00,0.00,VWS V14.01,2013-01-17 03:44:00,
2013-01-16 20:49:00,12.4,7.7,30.19,North,-999,0.0,0.0,81,0.00,,,0.00,0.00,VWS V14.01,2013-01-17 03:49:00,
2013-01-16 20:54:00,10.8,6.1,30.19,North,-999,0.0,0.0,81,0.00,,,0.00,0.00,VWS V14.01,2013-01-17 03:54:00,
2013-01-16 20:59:00,10.8,6.9,30.19,North,-999,0.0,0.0,84,0.00,,,0.00,0.00,VWS V14.01,2013-01-17 03:59:00,
2013-01-16 21:04:00,11.2,7.8,30.19,North,-999,0.0,0.0,86,0.00,,,0.00,0.00,VWS V14.01,2013-01-17 04:04:00,
2013-01-16 21:09:00,11.7,8.6,30.19,North,-999,0.0,0.0,87,0.00,,,0.00,0.00,VWS V14.01,2013-01-17 04:09:00,
2013-01-16 21:14:00,11.8,8.2,30.20,North,-999,0.0,0.0,85,0.00,,,0.00,0.00,VWS V14.01,2013-01-17 04:14:00,
2013-01-16 21:19:00,12.1,8.7,30.19,North,-999,0.0,0.0,86,0.00,,,0.00,0.00,VWS V14.01,2013-01-17 04:19:00,
2013-01-16 21:24:00,11.6,7.4,30.19,North,-999,0.0,0.0,83,0.00,,,0.00,0.00,VWS V14.01,2013-01-17 04:24:00,
2013-01-16 21:29:00,12.1,9.0,30.19,North,-999,0.0,0.0,87,0.00,,,0.00,0.00,VWS V14.01,2013-01-17 04:29:00,
2013-01-16 21:34:00,12.6,9.5,30.19,North,-999,0.0,0.0,87,0.00,,,0.00,0.00,VWS V14.01,2013-01-17 04:34:00,
2013-01-16 21:39:00,12.7,9.3,30.19,North,-999,0.0,0.0,86,0.00,,,0.00,0.00,VWS V14.01,2013-01-17 04:39:00,
2013-01-16 21:44:00,13.0,9.6,30.19,North,-999,0.0,0.0,86,0.00,,,0.00,0.00,VWS V14.01,2013-01-17 04:44:00,
2013-01-16 21:49:00,13.2,9.8,30.19,North,-999,0.0,0.0,86,0.00,,,0.00,0.00,VWS V14.01,2013-01-17 04:49:00,
2013-01-16 21:54:00,13.4,10.0,30.19,North,-999,0.0,0.0,86,0.00,,,0.00,0.00,VWS V14.01,2013-01-17 04:54:00,
2013-01-16 21:59:00,13.1,9.4,30.19,North,-999,0.0,0.0,85,0.00,,,0.00,0.00,VWS V14.01,2013-01-17 04:59:00,
2013-01-16 22:00:00,13.2,9.8,30.19,North,-999,0.0,0.0,86,0.00,,,0.00,0.00,VWS V14.01,2013-01-17 05:00:00,
2013-01-16 22:01:00,13.2,9.8,30.19,North,-999,0.0,0.0,86,0.00,,,0.00,0.00,VWS V14.01,2013-01-17 05:01:00,
2013-01-16 22:06:00,12.8,9.1,30.19,North,-999,0.0,0.0,85,0.00,,,0.00,0.00,VWS V14.01,2013-01-17 05:06:00,
2013-01-16 22:11:00,13.8,10.9,30.19,North,-999,0.0,0.0,88,0.00,,,0.00,0.00,VWS V14.01,2013-01-17 05:11:00,
2013-01-16 22:16:00,14.3,11.1,30.19,North,-999,0.0,0.0,87,0.00,,,0.00,0.00,VWS V14.01,2013-01-17 05:16:00,
2013-01-16 22:21:00,14.2,10.5,30.19,North,-999,0.0,0.0,85,0.00,,,0.00,0.00,VWS V14.01,2013-01-17 05:21:00,
2013-01-16 22:26:00,14.0,10.1,30.20,North,-999,0.0,0.0,84,0.00,,,0.00,0.00,VWS V14.01,2013-01-17 05:26:00,
2013-01-16 22:31:00,13.7,9.8,30.19,North,-999,0.0,0.0,84,0.00,,,0.00,0.00,VWS V14.01,2013-01-17 05:31:00,
2013-01-16 22:36:00,13.4,9.5,30.19,North,-999,0.0,0.0,84,0.00,,,0.00,0.00,VWS V14.01,2013-01-17 05:36:00,
2013-01-16 22:41:00,13.6,10.2,30.20,North,-999,0.0,0.0,86,0.00,,,0.00,0.00,VWS V14.01,2013-01-17 05:41:00,
2013-01-16 22:46:00,13.9,10.5,30.20,North,-999,0.0,0.0,86,0.00,,,0.00,0.00,VWS V14.01,2013-01-17 05:46:00,
2013-01-16 22:51:00,13.6,9.9,30.20,North,-999,0.0,0.0,85,0.00,,,0.00,0.00,VWS V14.01,2013-01-17 05:51:00,
2013-01-16 22:56:00,13.0,9.1,30.20,North,-999,0.0,0.0,84,0.00,,,0.00,0.00,VWS V14.01,2013-01-17 05:56:00,
2013-01-16 23:01:00,12.2,8.3,30.20,North,-999,0.0,0.0,84,0.00,,,0.00,0.00,VWS V14.01,2013-01-17 06:01:00,
2013-01-16 23:06:00,11.3,6.9,30.20,North,-999,0.0,0.0,82,0.00,,,0.00,0.00,VWS V14.01,2013-01-17 06:06:00,
2013-01-16 23:11:00,11.1,7.5,30.20,North,-999,0.0,0.0,85,0.00,,,0.00,0.00,VWS V14.01,2013-01-17 06:11:00,
2013-01-16 23:16:00,10.5,6.9,30.20,North,-999,0.0,0.0,85,0.00,,,0.00,0.00,VWS V14.01,2013-01-17 06:16:00,
2013-01-16 23:21:00,10.5,7.2,30.20,North,-999,0.0,0.0,86,0.00,,,0.00,0.00,VWS V14.01,2013-01-17 06:21:00,
2013-01-16 23:26:00,10.2,6.6,30.20,North,-999,0.0,0.0,85,0.00,,,0.00,0.00,VWS V14.01,2013-01-17 06:26:00,
2013-01-16 23:31:00,10.0,6.7,30.20,North,-999,0.0,0.0,86,0.00,,,0.00,0.00,VWS V14.01,2013-01-17 06:31:00,
2013-01-16 23:36:00,10.0,6.7,30.21,North,-999,0.0,0.0,86,0.00,,,0.00,0.00,VWS V14.01,2013-01-17 06:36:00,
2013-01-16 23:41:00,10.7,7.8,30.20,North,-999,0.0,0.0,88,0.00,,,0.00,0.00,VWS V14.01,2013-01-17 06:41:00,
2013-01-16 23:46:00,11.0,7.9,30.20,North,-999,0.0,0.0,87,0.00,,,0.00,0.00,VWS V14.01,2013-01-17 06:46:00,
2013-01-16 23:51:00,9.6,5.2,30.20,North,-999,0.0,3.0,82,0.00,,,0.00,0.00,VWS V14.01,2013-01-17 06:51:00,
2013-01-16 23:56:00,9.6,6.5,30.20,North,-999,0.0,3.0,87,0.00,,,0.00,0.00,VWS V14.01,2013-01-17 06:56:00,